sensor_id;sensor_type;location;lat;lon;timestamp;temperature;humidity
57444;DHT22;43289;52.962;6.196;2023-07-16T00:26:37;16.30;99.90
57444;DHT22;43289;52.962;6.196;2023-07-16T00:29:03;16.30;99.90
57444;DHT22;43289;52.962;6.196;2023-07-16T00:31:29;16.30;99.90
57444;DHT22;43289;52.962;6.196;2023-07-16T00:33:54;16.20;99.90
57444;DHT22;43289;52.962;6.196;2023-07-16T00:36:20;16.30;99.90
57444;DHT22;43289;52.962;6.196;2023-07-16T00:38:45;16.30;99.90
57444;DHT22;43289;52.962;6.196;2023-07-16T01:18:12;16.40;99.90
57444;DHT22;43289;52.962;6.196;2023-07-16T01:20:38;16.40;99.90
57444;DHT22;43289;52.962;6.196;2023-07-16T01:25:58;16.30;99.90
57444;DHT22;43289;52.962;6.196;2023-07-16T01:28:49;16.30;99.90
57444;DHT22;43289;52.962;6.196;2023-07-16T01:31:19;16.30;99.90
57444;DHT22;43289;52.962;6.196;2023-07-16T01:33:49;16.20;99.90
57444;DHT22;43289;52.962;6.196;2023-07-16T02:03:13;16.20;99.90
57444;DHT22;43289;52.962;6.196;2023-07-16T02:05:39;16.10;99.90
57444;DHT22;43289;52.962;6.196;2023-07-16T02:08:04;16.10;99.90
57444;DHT22;43289;52.962;6.196;2023-07-16T02:12:56;16.10;99.90
57444;DHT22;43289;52.962;6.196;2023-07-16T02:15:22;16.20;99.90
57444;DHT22;43289;52.962;6.196;2023-07-16T02:17:48;16.20;99.90
57444;DHT22;43289;52.962;6.196;2023-07-16T02:20:13;16.20;99.90
57444;DHT22;43289;52.962;6.196;2023-07-16T02:22:39;16.30;99.90
57444;DHT22;43289;52.962;6.196;2023-07-16T02:25:05;16.30;99.90
57444;DHT22;43289;52.962;6.196;2023-07-16T02:27:31;16.30;99.90
57444;DHT22;43289;52.962;6.196;2023-07-16T02:32:23;16.30;99.90
57444;DHT22;43289;52.962;6.196;2023-07-16T02:34:49;16.30;99.90
57444;DHT22;43289;52.962;6.196;2023-07-16T02:37:15;16.30;99.90
57444;DHT22;43289;52.962;6.196;2023-07-16T02:39:43;16.30;99.90
57444;DHT22;43289;52.962;6.196;2023-07-16T02:42:10;16.30;99.90
57444;DHT22;43289;52.962;6.196;2023-07-16T02:44:36;16.30;99.90
57444;DHT22;43289;52.962;6.196;2023-07-16T02:47:08;16.30;99.90
57444;DHT22;43289;52.962;6.196;2023-07-16T02:49:34;16.30;99.90
57444;DHT22;43289;52.962;6.196;2023-07-16T02:52:00;16.30;99.90
57444;DHT22;43289;52.962;6.196;2023-07-16T02:54:25;16.30;99.90
57444;DHT22;43289;52.962;6.196;2023-07-16T02:56:51;16.30;99.90
57444;DHT22;43289;52.962;6.196;2023-07-16T02:59:16;16.30;99.90
57444;DHT22;43289;52.962;6.196;2023-07-16T03:01:42;16.30;99.90
57444;DHT22;43289;52.962;6.196;2023-07-16T03:04:07;16.30;99.90
57444;DHT22;43289;52.962;6.196;2023-07-16T03:06:33;16.30;99.90
57444;DHT22;43289;52.962;6.196;2023-07-16T03:08:59;16.20;99.90
57444;DHT22;43289;52.962;6.196;2023-07-16T03:11:24;16.20;99.90
57444;DHT22;43289;52.962;6.196;2023-07-16T03:13:50;16.20;99.90
57444;DHT22;43289;52.962;6.196;2023-07-16T03:16:15;16.20;99.90
57444;DHT22;43289;52.962;6.196;2023-07-16T03:18:41;16.20;99.90
57444;DHT22;43289;52.962;6.196;2023-07-16T03:21:06;16.20;99.90
57444;DHT22;43289;52.962;6.196;2023-07-16T03:23:32;16.20;99.90
57444;DHT22;43289;52.962;6.196;2023-07-16T03:25:59;16.20;99.90
57444;DHT22;43289;52.962;6.196;2023-07-16T03:28:24;16.20;99.90
57444;DHT22;43289;52.962;6.196;2023-07-16T03:30:51;16.20;99.90
57444;DHT22;43289;52.962;6.196;2023-07-16T03:33:17;16.20;99.90
57444;DHT22;43289;52.962;6.196;2023-07-16T03:35:43;16.20;99.90
57444;DHT22;43289;52.962;6.196;2023-07-16T03:38:10;16.20;99.90
57444;DHT22;43289;52.962;6.196;2023-07-16T03:40:36;16.20;99.90
57444;DHT22;43289;52.962;6.196;2023-07-16T03:43:01;16.20;99.90
57444;DHT22;43289;52.962;6.196;2023-07-16T03:45:27;16.20;99.90
57444;DHT22;43289;52.962;6.196;2023-07-16T03:47:52;16.10;99.90
57444;DHT22;43289;52.962;6.196;2023-07-16T03:50:18;16.20;99.90
57444;DHT22;43289;52.962;6.196;2023-07-16T03:52:44;16.10;99.90
57444;DHT22;43289;52.962;6.196;2023-07-16T03:55:10;16.20;99.90
57444;DHT22;43289;52.962;6.196;2023-07-16T03:57:36;16.20;99.90
57444;DHT22;43289;52.962;6.196;2023-07-16T04:00:03;16.20;99.90
57444;DHT22;43289;52.962;6.196;2023-07-16T04:02:31;16.20;99.90
57444;DHT22;43289;52.962;6.196;2023-07-16T04:04:57;16.10;99.90
57444;DHT22;43289;52.962;6.196;2023-07-16T04:07:22;16.20;99.90
57444;DHT22;43289;52.962;6.196;2023-07-16T04:09:51;16.20;99.90
57444;DHT22;43289;52.962;6.196;2023-07-16T04:12:17;16.20;99.90
57444;DHT22;43289;52.962;6.196;2023-07-16T04:14:42;16.30;99.90
57444;DHT22;43289;52.962;6.196;2023-07-16T04:29:19;16.20;99.90
57444;DHT22;43289;52.962;6.196;2023-07-16T04:56:15;16.50;99.90
57444;DHT22;43289;52.962;6.196;2023-07-16T04:58:42;16.90;99.90
57444;DHT22;43289;52.962;6.196;2023-07-16T05:01:08;16.90;99.90
57444;DHT22;43289;52.962;6.196;2023-07-16T05:03:34;17.00;99.90
57444;DHT22;43289;52.962;6.196;2023-07-16T05:05:59;17.20;99.90
57444;DHT22;43289;52.962;6.196;2023-07-16T05:08:25;17.20;99.90
57444;DHT22;43289;52.962;6.196;2023-07-16T05:10:51;17.20;99.90
57444;DHT22;43289;52.962;6.196;2023-07-16T05:13:17;17.20;99.90
57444;DHT22;43289;52.962;6.196;2023-07-16T05:15:43;17.30;99.90
57444;DHT22;43289;52.962;6.196;2023-07-16T05:18:09;17.30;99.90
57444;DHT22;43289;52.962;6.196;2023-07-16T05:20:35;17.30;99.90
57444;DHT22;43289;52.962;6.196;2023-07-16T05:23:01;17.30;99.90
57444;DHT22;43289;52.962;6.196;2023-07-16T05:25:26;17.30;99.90
57444;DHT22;43289;52.962;6.196;2023-07-16T05:27:52;17.30;99.90
57444;DHT22;43289;52.962;6.196;2023-07-16T05:30:18;17.40;99.90
57444;DHT22;43289;52.962;6.196;2023-07-16T05:32:43;17.50;99.90
57444;DHT22;43289;52.962;6.196;2023-07-16T05:35:09;17.60;99.90
57444;DHT22;43289;52.962;6.196;2023-07-16T05:37:35;17.60;99.90
57444;DHT22;43289;52.962;6.196;2023-07-16T05:40:01;17.50;99.90
57444;DHT22;43289;52.962;6.196;2023-07-16T05:42:26;17.50;99.90
57444;DHT22;43289;52.962;6.196;2023-07-16T05:44:52;17.50;99.90
57444;DHT22;43289;52.962;6.196;2023-07-16T05:47:17;17.60;99.90
57444;DHT22;43289;52.962;6.196;2023-07-16T05:49:43;17.80;99.90
57444;DHT22;43289;52.962;6.196;2023-07-16T05:52:09;17.80;99.90
57444;DHT22;43289;52.962;6.196;2023-07-16T05:54:34;17.80;99.90
57444;DHT22;43289;52.962;6.196;2023-07-16T05:57:00;17.90;99.90
57444;DHT22;43289;52.962;6.196;2023-07-16T05:59:26;17.90;99.90
57444;DHT22;43289;52.962;6.196;2023-07-16T06:01:51;18.00;99.90
57444;DHT22;43289;52.962;6.196;2023-07-16T06:04:17;18.10;99.90
57444;DHT22;43289;52.962;6.196;2023-07-16T06:06:43;18.20;99.90
57444;DHT22;43289;52.962;6.196;2023-07-16T06:09:09;18.20;99.90
57444;DHT22;43289;52.962;6.196;2023-07-16T06:11:34;18.30;99.90
57444;DHT22;43289;52.962;6.196;2023-07-16T06:14:00;18.30;99.90
57444;DHT22;43289;52.962;6.196;2023-07-16T06:16:26;18.30;99.90
57444;DHT22;43289;52.962;6.196;2023-07-16T06:18:59;18.40;99.90
57444;DHT22;43289;52.962;6.196;2023-07-16T06:21:25;18.30;99.90
57444;DHT22;43289;52.962;6.196;2023-07-16T06:23:50;18.30;99.90
57444;DHT22;43289;52.962;6.196;2023-07-16T06:26:16;18.20;99.90
57444;DHT22;43289;52.962;6.196;2023-07-16T06:28:42;18.30;99.90
57444;DHT22;43289;52.962;6.196;2023-07-16T06:31:07;18.30;99.90
57444;DHT22;43289;52.962;6.196;2023-07-16T06:33:33;18.30;99.90
57444;DHT22;43289;52.962;6.196;2023-07-16T06:35:59;18.30;99.90
57444;DHT22;43289;52.962;6.196;2023-07-16T06:38:24;18.20;99.90
57444;DHT22;43289;52.962;6.196;2023-07-16T06:40:51;18.20;99.90
57444;DHT22;43289;52.962;6.196;2023-07-16T06:43:17;18.20;99.90
57444;DHT22;43289;52.962;6.196;2023-07-16T06:45:43;18.20;99.90
57444;DHT22;43289;52.962;6.196;2023-07-16T06:48:09;18.30;99.90
57444;DHT22;43289;52.962;6.196;2023-07-16T06:50:35;18.30;99.90
57444;DHT22;43289;52.962;6.196;2023-07-16T06:53:00;18.30;99.90
57444;DHT22;43289;52.962;6.196;2023-07-16T06:55:26;18.40;99.90
57444;DHT22;43289;52.962;6.196;2023-07-16T06:57:52;18.40;99.90
57444;DHT22;43289;52.962;6.196;2023-07-16T07:00:19;18.50;99.90
57444;DHT22;43289;52.962;6.196;2023-07-16T07:02:44;18.50;99.90
57444;DHT22;43289;52.962;6.196;2023-07-16T07:05:10;18.60;99.90
57444;DHT22;43289;52.962;6.196;2023-07-16T07:07:35;18.60;99.90
57444;DHT22;43289;52.962;6.196;2023-07-16T07:10:01;18.80;99.90
57444;DHT22;43289;52.962;6.196;2023-07-16T07:12:27;18.80;99.90
57444;DHT22;43289;52.962;6.196;2023-07-16T07:14:52;18.70;99.90
57444;DHT22;43289;52.962;6.196;2023-07-16T07:17:18;18.70;99.90
57444;DHT22;43289;52.962;6.196;2023-07-16T07:19:44;18.80;99.90
57444;DHT22;43289;52.962;6.196;2023-07-16T07:22:10;18.90;99.90
57444;DHT22;43289;52.962;6.196;2023-07-16T07:24:35;19.00;99.90
57444;DHT22;43289;52.962;6.196;2023-07-16T07:27:01;19.10;99.90
57444;DHT22;43289;52.962;6.196;2023-07-16T07:29:27;19.20;99.90
57444;DHT22;43289;52.962;6.196;2023-07-16T07:31:53;19.50;99.90
57444;DHT22;43289;52.962;6.196;2023-07-16T07:34:19;19.40;99.90
57444;DHT22;43289;52.962;6.196;2023-07-16T07:36:44;19.30;99.90
57444;DHT22;43289;52.962;6.196;2023-07-16T07:39:11;19.30;99.90
57444;DHT22;43289;52.962;6.196;2023-07-16T07:41:38;19.40;99.90
57444;DHT22;43289;52.962;6.196;2023-07-16T07:44:04;19.30;99.90
57444;DHT22;43289;52.962;6.196;2023-07-16T07:46:30;19.30;99.90
57444;DHT22;43289;52.962;6.196;2023-07-16T07:48:55;19.30;99.90
57444;DHT22;43289;52.962;6.196;2023-07-16T07:51:21;19.20;99.90
57444;DHT22;43289;52.962;6.196;2023-07-16T07:53:46;19.10;99.90
57444;DHT22;43289;52.962;6.196;2023-07-16T07:56:12;19.00;99.90
57444;DHT22;43289;52.962;6.196;2023-07-16T07:58:38;18.90;99.90
57444;DHT22;43289;52.962;6.196;2023-07-16T08:01:07;18.80;99.90
57444;DHT22;43289;52.962;6.196;2023-07-16T08:03:33;18.80;99.90
57444;DHT22;43289;52.962;6.196;2023-07-16T08:05:59;18.80;99.90
57444;DHT22;43289;52.962;6.196;2023-07-16T08:08:26;18.80;99.90
57444;DHT22;43289;52.962;6.196;2023-07-16T08:10:53;18.80;99.90
57444;DHT22;43289;52.962;6.196;2023-07-16T08:13:18;18.80;99.90
57444;DHT22;43289;52.962;6.196;2023-07-16T08:15:44;18.80;99.90
57444;DHT22;43289;52.962;6.196;2023-07-16T08:18:10;18.90;99.90
57444;DHT22;43289;52.962;6.196;2023-07-16T08:20:36;19.00;99.90
57444;DHT22;43289;52.962;6.196;2023-07-16T08:23:02;19.10;99.90
57444;DHT22;43289;52.962;6.196;2023-07-16T08:25:27;19.40;99.90
57444;DHT22;43289;52.962;6.196;2023-07-16T08:27:54;19.80;99.90
57444;DHT22;43289;52.962;6.196;2023-07-16T08:30:19;20.20;99.90
57444;DHT22;43289;52.962;6.196;2023-07-16T08:32:45;20.40;99.90
57444;DHT22;43289;52.962;6.196;2023-07-16T08:35:11;20.20;99.90
57444;DHT22;43289;52.962;6.196;2023-07-16T08:37:44;20.30;99.90
57444;DHT22;43289;52.962;6.196;2023-07-16T08:40:11;20.30;99.90
57444;DHT22;43289;52.962;6.196;2023-07-16T08:42:40;20.50;99.90
57444;DHT22;43289;52.962;6.196;2023-07-16T08:45:06;20.60;99.90
57444;DHT22;43289;52.962;6.196;2023-07-16T08:47:34;20.60;99.90
57444;DHT22;43289;52.962;6.196;2023-07-16T08:50:01;20.60;99.90
57444;DHT22;43289;52.962;6.196;2023-07-16T08:52:27;20.80;99.90
57444;DHT22;43289;52.962;6.196;2023-07-16T08:54:53;20.70;99.90
57444;DHT22;43289;52.962;6.196;2023-07-16T08:57:20;20.80;99.90
57444;DHT22;43289;52.962;6.196;2023-07-16T08:59:50;20.90;99.90
57444;DHT22;43289;52.962;6.196;2023-07-16T09:02:19;20.70;99.90
57444;DHT22;43289;52.962;6.196;2023-07-16T09:04:49;20.40;99.90
57444;DHT22;43289;52.962;6.196;2023-07-16T09:07:16;20.20;99.90
57444;DHT22;43289;52.962;6.196;2023-07-16T09:09:42;20.10;99.90
57444;DHT22;43289;52.962;6.196;2023-07-16T09:12:14;20.20;99.90
57444;DHT22;43289;52.962;6.196;2023-07-16T09:14:42;20.20;99.90
57444;DHT22;43289;52.962;6.196;2023-07-16T09:17:09;20.40;99.90
57444;DHT22;43289;52.962;6.196;2023-07-16T09:19:36;20.50;99.90
57444;DHT22;43289;52.962;6.196;2023-07-16T09:22:01;20.60;99.90
57444;DHT22;43289;52.962;6.196;2023-07-16T09:24:29;20.70;99.90
57444;DHT22;43289;52.962;6.196;2023-07-16T09:26:55;20.70;99.90
57444;DHT22;43289;52.962;6.196;2023-07-16T09:29:25;20.60;99.90
57444;DHT22;43289;52.962;6.196;2023-07-16T09:31:57;20.60;99.90
57444;DHT22;43289;52.962;6.196;2023-07-16T09:34:23;20.70;99.90
57444;DHT22;43289;52.962;6.196;2023-07-16T09:36:49;20.80;99.90
57444;DHT22;43289;52.962;6.196;2023-07-16T09:39:18;20.80;99.90
57444;DHT22;43289;52.962;6.196;2023-07-16T09:41:48;20.80;99.90
57444;DHT22;43289;52.962;6.196;2023-07-16T09:44:15;20.80;99.90
57444;DHT22;43289;52.962;6.196;2023-07-16T09:46:42;20.80;99.90
57444;DHT22;43289;52.962;6.196;2023-07-16T09:49:08;20.60;99.90
57444;DHT22;43289;52.962;6.196;2023-07-16T09:51:36;20.60;99.90
57444;DHT22;43289;52.962;6.196;2023-07-16T09:54:02;20.50;99.90
57444;DHT22;43289;52.962;6.196;2023-07-16T09:56:34;20.60;99.90
57444;DHT22;43289;52.962;6.196;2023-07-16T09:59:00;20.90;99.90
57444;DHT22;43289;52.962;6.196;2023-07-16T10:01:28;20.80;99.90
57444;DHT22;43289;52.962;6.196;2023-07-16T10:03:54;20.90;99.90
57444;DHT22;43289;52.962;6.196;2023-07-16T10:06:20;21.00;99.90
57444;DHT22;43289;52.962;6.196;2023-07-16T10:08:51;21.30;99.90
57444;DHT22;43289;52.962;6.196;2023-07-16T10:11:18;21.30;99.90
57444;DHT22;43289;52.962;6.196;2023-07-16T10:13:48;21.00;99.90
57444;DHT22;43289;52.962;6.196;2023-07-16T10:16:21;20.60;99.90
57444;DHT22;43289;52.962;6.196;2023-07-16T10:18:53;20.40;99.90
57444;DHT22;43289;52.962;6.196;2023-07-16T10:21:25;20.40;99.90
57444;DHT22;43289;52.962;6.196;2023-07-16T10:23:58;20.40;99.90
57444;DHT22;43289;52.962;6.196;2023-07-16T10:26:29;20.80;99.90
57444;DHT22;43289;52.962;6.196;2023-07-16T10:28:58;20.90;99.90
57444;DHT22;43289;52.962;6.196;2023-07-16T10:31:25;21.00;99.90
57444;DHT22;43289;52.962;6.196;2023-07-16T10:34:10;20.90;99.90
57444;DHT22;43289;52.962;6.196;2023-07-16T10:36:45;20.80;99.90
57444;DHT22;43289;52.962;6.196;2023-07-16T10:39:16;21.10;99.90
57444;DHT22;43289;52.962;6.196;2023-07-16T10:41:42;21.40;99.90
57444;DHT22;43289;52.962;6.196;2023-07-16T10:44:08;21.40;99.90
57444;DHT22;43289;52.962;6.196;2023-07-16T10:46:36;21.50;99.90
57444;DHT22;43289;52.962;6.196;2023-07-16T10:49:02;21.70;99.90
57444;DHT22;43289;52.962;6.196;2023-07-16T10:51:48;21.70;99.90
57444;DHT22;43289;52.962;6.196;2023-07-16T10:54:19;21.60;99.90
57444;DHT22;43289;52.962;6.196;2023-07-16T10:56:50;21.60;99.90
57444;DHT22;43289;52.962;6.196;2023-07-16T10:59:17;21.30;99.90
57444;DHT22;43289;52.962;6.196;2023-07-16T11:01:43;21.10;99.90
57444;DHT22;43289;52.962;6.196;2023-07-16T11:04:09;20.80;99.90
57444;DHT22;43289;52.962;6.196;2023-07-16T11:06:35;20.70;99.90
57444;DHT22;43289;52.962;6.196;2023-07-16T11:09:10;20.80;99.90
57444;DHT22;43289;52.962;6.196;2023-07-16T11:11:36;21.10;99.90
57444;DHT22;43289;52.962;6.196;2023-07-16T11:14:06;21.20;99.90
57444;DHT22;43289;52.962;6.196;2023-07-16T11:16:36;21.20;99.90
57444;DHT22;43289;52.962;6.196;2023-07-16T11:19:06;21.00;99.90
57444;DHT22;43289;52.962;6.196;2023-07-16T11:21:36;20.90;99.90
57444;DHT22;43289;52.962;6.196;2023-07-16T11:24:17;20.90;99.90
57444;DHT22;43289;52.962;6.196;2023-07-16T11:26:56;20.80;99.90
57444;DHT22;43289;52.962;6.196;2023-07-16T11:29:34;20.60;99.90
57444;DHT22;43289;52.962;6.196;2023-07-16T11:32:01;20.40;99.90
57444;DHT22;43289;52.962;6.196;2023-07-16T11:34:27;20.30;99.90
57444;DHT22;43289;52.962;6.196;2023-07-16T11:36:52;20.30;99.90
57444;DHT22;43289;52.962;6.196;2023-07-16T11:39:18;20.30;99.90
57444;DHT22;43289;52.962;6.196;2023-07-16T11:42:03;20.30;99.90
57444;DHT22;43289;52.962;6.196;2023-07-16T11:44:33;20.50;99.90
57444;DHT22;43289;52.962;6.196;2023-07-16T11:46:59;20.70;99.90
57444;DHT22;43289;52.962;6.196;2023-07-16T11:49:25;21.00;99.90
57444;DHT22;43289;52.962;6.196;2023-07-16T11:51:50;21.00;99.90
57444;DHT22;43289;52.962;6.196;2023-07-16T11:54:16;20.90;99.90
57444;DHT22;43289;52.962;6.196;2023-07-16T11:56:42;20.70;99.90
57444;DHT22;43289;52.962;6.196;2023-07-16T11:59:07;20.50;99.90
57444;DHT22;43289;52.962;6.196;2023-07-16T12:01:33;20.30;99.90
57444;DHT22;43289;52.962;6.196;2023-07-16T12:03:58;20.30;99.90
57444;DHT22;43289;52.962;6.196;2023-07-16T12:06:24;20.60;99.90
57444;DHT22;43289;52.962;6.196;2023-07-16T12:08:49;21.20;99.90
57444;DHT22;43289;52.962;6.196;2023-07-16T12:11:15;21.30;99.90
57444;DHT22;43289;52.962;6.196;2023-07-16T12:13:41;21.20;99.90
57444;DHT22;43289;52.962;6.196;2023-07-16T12:16:06;20.90;99.90
57444;DHT22;43289;52.962;6.196;2023-07-16T12:18:32;20.90;99.90
57444;DHT22;43289;52.962;6.196;2023-07-16T12:20:58;20.90;99.90
57444;DHT22;43289;52.962;6.196;2023-07-16T12:23:23;20.90;99.90
57444;DHT22;43289;52.962;6.196;2023-07-16T12:25:49;21.20;99.90
57444;DHT22;43289;52.962;6.196;2023-07-16T12:28:15;21.40;99.90
57444;DHT22;43289;52.962;6.196;2023-07-16T12:30:41;21.50;99.90
57444;DHT22;43289;52.962;6.196;2023-07-16T12:33:06;21.40;99.90
57444;DHT22;43289;52.962;6.196;2023-07-16T12:35:32;21.30;99.90
57444;DHT22;43289;52.962;6.196;2023-07-16T12:37:58;21.10;99.90
57444;DHT22;43289;52.962;6.196;2023-07-16T12:40:24;20.80;99.90
57444;DHT22;43289;52.962;6.196;2023-07-16T12:42:50;20.80;99.90
57444;DHT22;43289;52.962;6.196;2023-07-16T12:45:15;20.80;99.90
57444;DHT22;43289;52.962;6.196;2023-07-16T12:47:41;20.70;99.90
57444;DHT22;43289;52.962;6.196;2023-07-16T12:50:07;20.70;99.90
57444;DHT22;43289;52.962;6.196;2023-07-16T12:52:33;20.60;99.90
57444;DHT22;43289;52.962;6.196;2023-07-16T12:54:59;20.80;99.90
57444;DHT22;43289;52.962;6.196;2023-07-16T12:57:24;21.10;99.90
57444;DHT22;43289;52.962;6.196;2023-07-16T12:59:50;21.50;99.90
57444;DHT22;43289;52.962;6.196;2023-07-16T13:02:16;22.00;99.90
57444;DHT22;43289;52.962;6.196;2023-07-16T13:04:41;22.10;99.90
57444;DHT22;43289;52.962;6.196;2023-07-16T13:07:07;21.90;99.90
57444;DHT22;43289;52.962;6.196;2023-07-16T13:09:32;21.70;99.90
57444;DHT22;43289;52.962;6.196;2023-07-16T13:11:58;21.60;99.90
57444;DHT22;43289;52.962;6.196;2023-07-16T13:14:23;21.40;99.90
57444;DHT22;43289;52.962;6.196;2023-07-16T13:16:49;21.40;99.90
57444;DHT22;43289;52.962;6.196;2023-07-16T13:19:14;21.30;99.90
57444;DHT22;43289;52.962;6.196;2023-07-16T13:21:40;21.30;99.90
57444;DHT22;43289;52.962;6.196;2023-07-16T13:24:06;21.50;99.90
57444;DHT22;43289;52.962;6.196;2023-07-16T13:26:31;21.70;99.90
57444;DHT22;43289;52.962;6.196;2023-07-16T13:28:57;22.00;99.90
57444;DHT22;43289;52.962;6.196;2023-07-16T13:31:22;22.10;99.90
57444;DHT22;43289;52.962;6.196;2023-07-16T13:33:48;21.80;99.90
57444;DHT22;43289;52.962;6.196;2023-07-16T13:36:14;21.60;99.90
57444;DHT22;43289;52.962;6.196;2023-07-16T13:38:39;21.50;99.90
57444;DHT22;43289;52.962;6.196;2023-07-16T13:41:05;21.80;99.90
57444;DHT22;43289;52.962;6.196;2023-07-16T13:43:30;22.10;99.90
57444;DHT22;43289;52.962;6.196;2023-07-16T13:45:56;22.10;99.90
57444;DHT22;43289;52.962;6.196;2023-07-16T13:48:21;21.90;99.90
57444;DHT22;43289;52.962;6.196;2023-07-16T13:50:47;22.30;99.90
57444;DHT22;43289;52.962;6.196;2023-07-16T13:53:12;22.70;99.90
57444;DHT22;43289;52.962;6.196;2023-07-16T13:55:38;23.10;99.90
57444;DHT22;43289;52.962;6.196;2023-07-16T13:58:04;22.90;99.90
57444;DHT22;43289;52.962;6.196;2023-07-16T14:00:29;22.80;99.90
57444;DHT22;43289;52.962;6.196;2023-07-16T14:02:55;23.40;99.90
57444;DHT22;43289;52.962;6.196;2023-07-16T14:05:20;23.50;99.90
57444;DHT22;43289;52.962;6.196;2023-07-16T14:07:46;23.30;99.90
57444;DHT22;43289;52.962;6.196;2023-07-16T14:32:11;23.70;99.90
57444;DHT22;43289;52.962;6.196;2023-07-16T14:34:37;24.20;99.90
57444;DHT22;43289;52.962;6.196;2023-07-16T14:37:03;23.90;99.90
57444;DHT22;43289;52.962;6.196;2023-07-16T14:39:29;23.70;99.90
57444;DHT22;43289;52.962;6.196;2023-07-16T14:41:55;23.70;99.90
57444;DHT22;43289;52.962;6.196;2023-07-16T14:44:20;23.60;99.90
57444;DHT22;43289;52.962;6.196;2023-07-16T14:46:46;23.60;99.90
57444;DHT22;43289;52.962;6.196;2023-07-16T14:49:12;23.40;99.90
57444;DHT22;43289;52.962;6.196;2023-07-16T14:51:37;23.10;99.90
57444;DHT22;43289;52.962;6.196;2023-07-16T14:54:09;23.20;99.90
57444;DHT22;43289;52.962;6.196;2023-07-16T14:56:35;23.40;99.90
57444;DHT22;43289;52.962;6.196;2023-07-16T14:59:00;23.40;99.90
57444;DHT22;43289;52.962;6.196;2023-07-16T15:01:26;23.70;99.90
57444;DHT22;43289;52.962;6.196;2023-07-16T15:03:52;23.60;99.90
57444;DHT22;43289;52.962;6.196;2023-07-16T15:06:17;23.40;99.90
57444;DHT22;43289;52.962;6.196;2023-07-16T15:08:43;23.30;99.90
57444;DHT22;43289;52.962;6.196;2023-07-16T15:11:09;23.00;99.90
57444;DHT22;43289;52.962;6.196;2023-07-16T15:13:34;22.70;99.90
57444;DHT22;43289;52.962;6.196;2023-07-16T15:16:00;22.70;99.90
57444;DHT22;43289;52.962;6.196;2023-07-16T15:18:26;22.90;99.90
57444;DHT22;43289;52.962;6.196;2023-07-16T15:21:00;23.10;99.90
57444;DHT22;43289;52.962;6.196;2023-07-16T15:23:26;22.80;99.90
57444;DHT22;43289;52.962;6.196;2023-07-16T15:25:52;22.60;99.90
57444;DHT22;43289;52.962;6.196;2023-07-16T15:28:18;22.40;99.90
57444;DHT22;43289;52.962;6.196;2023-07-16T15:30:43;22.40;99.90
57444;DHT22;43289;52.962;6.196;2023-07-16T15:33:09;22.30;99.90
57444;DHT22;43289;52.962;6.196;2023-07-16T15:35:34;22.30;99.90
57444;DHT22;43289;52.962;6.196;2023-07-16T15:38:02;22.40;99.90
57444;DHT22;43289;52.962;6.196;2023-07-16T15:40:31;22.60;99.90
57444;DHT22;43289;52.962;6.196;2023-07-16T15:42:57;22.70;99.90
57444;DHT22;43289;52.962;6.196;2023-07-16T15:45:23;22.60;99.90
57444;DHT22;43289;52.962;6.196;2023-07-16T15:47:48;22.70;99.90
57444;DHT22;43289;52.962;6.196;2023-07-16T15:50:16;23.10;99.90
57444;DHT22;43289;52.962;6.196;2023-07-16T15:52:41;23.50;99.90
57444;DHT22;43289;52.962;6.196;2023-07-16T15:55:07;23.40;99.90
57444;DHT22;43289;52.962;6.196;2023-07-16T15:57:33;23.40;99.90
57444;DHT22;43289;52.962;6.196;2023-07-16T15:59:59;23.50;99.90
57444;DHT22;43289;52.962;6.196;2023-07-16T16:02:24;23.40;99.90
57444;DHT22;43289;52.962;6.196;2023-07-16T16:04:50;23.40;99.90
57444;DHT22;43289;52.962;6.196;2023-07-16T16:07:16;23.50;99.90
57444;DHT22;43289;52.962;6.196;2023-07-16T16:09:41;23.40;99.90
57444;DHT22;43289;52.962;6.196;2023-07-16T16:12:08;23.30;99.90
57444;DHT22;43289;52.962;6.196;2023-07-16T16:14:33;23.20;99.90
57444;DHT22;43289;52.962;6.196;2023-07-16T16:16:59;23.30;99.90
57444;DHT22;43289;52.962;6.196;2023-07-16T16:19:25;23.40;99.90
57444;DHT22;43289;52.962;6.196;2023-07-16T16:21:50;23.40;99.90
57444;DHT22;43289;52.962;6.196;2023-07-16T16:24:16;23.40;99.90
57444;DHT22;43289;52.962;6.196;2023-07-16T16:26:42;23.70;99.90
57444;DHT22;43289;52.962;6.196;2023-07-16T16:29:08;23.70;99.90
57444;DHT22;43289;52.962;6.196;2023-07-16T16:31:33;23.20;99.90
57444;DHT22;43289;52.962;6.196;2023-07-16T16:33:59;23.10;99.90
57444;DHT22;43289;52.962;6.196;2023-07-16T16:36:24;22.80;99.90
57444;DHT22;43289;52.962;6.196;2023-07-16T16:38:50;22.50;99.90
57444;DHT22;43289;52.962;6.196;2023-07-16T16:41:16;22.20;99.90
57444;DHT22;43289;52.962;6.196;2023-07-16T16:43:41;21.90;99.90
57444;DHT22;43289;52.962;6.196;2023-07-16T16:46:07;21.70;99.90
57444;DHT22;43289;52.962;6.196;2023-07-16T16:48:33;21.50;99.90
57444;DHT22;43289;52.962;6.196;2023-07-16T16:51:02;21.30;99.90
57444;DHT22;43289;52.962;6.196;2023-07-16T16:53:28;21.30;99.90
57444;DHT22;43289;52.962;6.196;2023-07-16T16:55:54;21.20;99.90
57444;DHT22;43289;52.962;6.196;2023-07-16T16:58:21;21.20;99.90
57444;DHT22;43289;52.962;6.196;2023-07-16T17:00:48;21.20;99.90
57444;DHT22;43289;52.962;6.196;2023-07-16T17:03:20;21.10;99.90
57444;DHT22;43289;52.962;6.196;2023-07-16T17:05:51;21.10;99.90
57444;DHT22;43289;52.962;6.196;2023-07-16T17:08:22;21.00;99.90
57444;DHT22;43289;52.962;6.196;2023-07-16T17:10:48;21.00;99.90
57444;DHT22;43289;52.962;6.196;2023-07-16T17:13:14;20.90;99.90
57444;DHT22;43289;52.962;6.196;2023-07-16T17:15:44;20.80;99.90
57444;DHT22;43289;52.962;6.196;2023-07-16T17:18:10;20.70;99.90
57444;DHT22;43289;52.962;6.196;2023-07-16T17:20:36;20.60;99.90
57444;DHT22;43289;52.962;6.196;2023-07-16T17:23:01;20.60;99.90
57444;DHT22;43289;52.962;6.196;2023-07-16T17:25:27;20.60;99.90
57444;DHT22;43289;52.962;6.196;2023-07-16T17:27:53;20.60;99.90
57444;DHT22;43289;52.962;6.196;2023-07-16T17:30:22;20.60;99.90
57444;DHT22;43289;52.962;6.196;2023-07-16T17:32:48;20.60;99.90
57444;DHT22;43289;52.962;6.196;2023-07-16T17:35:14;20.70;99.90
57444;DHT22;43289;52.962;6.196;2023-07-16T17:37:39;20.80;99.90
57444;DHT22;43289;52.962;6.196;2023-07-16T17:40:06;20.80;99.90
57444;DHT22;43289;52.962;6.196;2023-07-16T17:42:32;20.90;99.90
57444;DHT22;43289;52.962;6.196;2023-07-16T17:44:57;20.80;99.90
57444;DHT22;43289;52.962;6.196;2023-07-16T17:47:23;20.80;99.90
57444;DHT22;43289;52.962;6.196;2023-07-16T17:49:48;20.80;99.90
57444;DHT22;43289;52.962;6.196;2023-07-16T17:52:14;20.80;99.90
57444;DHT22;43289;52.962;6.196;2023-07-16T17:54:40;20.80;99.90
57444;DHT22;43289;52.962;6.196;2023-07-16T17:57:06;20.70;99.90
57444;DHT22;43289;52.962;6.196;2023-07-16T17:59:31;20.60;99.90
57444;DHT22;43289;52.962;6.196;2023-07-16T18:01:57;20.60;99.90